Time;durP1;ratioP1;P1;durP2;ratioP2;P2;SDS_P1;SDS_P2;PMS_P1;PMS_P2;Temp;Humidity;BMP_temperature;BMP_pressure;BME280_temperature;BME280_humidity;BME280_pressure;Samples;Min_cycle;Max_cycle;Signal;HPM_P1;HPM_P2
2023/08/28 00:00:59;;;;;;;;;6.25;5.00;;;;;22.61;100.00;100748.38;2122089;27;46073;-70
2023/08/28 00:02:00;;;;;;;;;6.75;6.75;;;;;22.59;100.00;100748.47;2121802;27;45931;-70
2023/08/28 00:03:00;;;;;;;;;25.50;23.50;;;;;22.35;100.00;100749.34;2114078;27;46821;-71
2023/08/28 00:04:02;;;;;;;;;56.75;43.25;;;;;22.56;100.00;100753.25;2122153;27;46291;-69
2023/08/28 00:05:03;;;;;;;;;60.40;48.40;;;;;22.58;100.00;100745.88;2118558;27;45997;-70
2023/08/28 00:06:03;;;;;;;;;43.60;36.80;;;;;22.58;100.00;100745.88;2119633;27;46346;-70
2023/08/28 00:07:04;;;;;;;;;42.50;36.25;;;;;22.58;100.00;100737.78;2114128;27;45093;-71
2023/08/28 00:08:05;;;;;;;;;30.50;28.75;;;;;22.56;100.00;100742.44;2114699;27;46764;-70
2023/08/28 00:09:05;;;;;;;;;13.75;13.75;;;;;22.59;100.00;100742.19;2118117;27;45978;-70
2023/08/28 00:10:09;;;;;;;;;12.00;10.00;;;;;22.68;100.00;100743.41;2114578;27;46653;-70
2023/08/28 00:11:09;;;;;;;;;5.50;4.50;;;;;22.72;100.00;100750.31;2121075;27;45827;-71
2023/08/28 00:12:09;;;;;;;;;11.33;9.67;;;;;22.73;100.00;100747.50;2114034;27;46225;-70
2023/08/28 00:13:10;;;;;;;;;8.33;8.33;;;;;22.77;100.00;100748.16;2113852;27;45702;-69
2023/08/28 00:14:10;;;;;;;;;4.33;4.00;;;;;22.75;100.00;100745.56;2122226;27;46269;-69
2023/08/28 00:15:11;;;;;;;;;2.67;1.00;;;;;22.75;100.00;100740.16;2123212;27;46301;-70
2023/08/28 00:16:11;;;;;;;;;10.67;7.67;;;;;22.77;100.00;100754.44;2123146;27;46308;-70
2023/08/28 00:17:12;;;;;;;;;8.33;8.33;;;;;22.78;100.00;100741.75;2114187;27;46822;-70
2023/08/28 00:18:12;;;;;;;;;5.33;3.33;;;;;22.78;100.00;100745.34;2113912;27;45572;-69
2023/08/28 00:19:12;;;;;;;;;2.00;2.00;;;;;22.78;100.00;100744.47;2122636;27;46741;-71
2023/08/28 00:20:13;;;;;;;;;8.33;8.00;;;;;22.77;100.00;100743.59;2123084;27;46352;-69
2023/08/28 00:21:13;;;;;;;;;20.75;20.75;;;;;22.77;100.00;100749.03;2113626;27;45715;-69
2023/08/28 00:22:13;;;;;;;;;46.50;38.50;;;;;22.79;100.00;100736.25;2112430;27;45684;-71
2023/08/28 00:23:14;;;;;;;;;12.25;10.75;;;;;22.81;100.00;100739.69;2122906;27;45830;-70
2023/08/28 00:24:17;;;;;;;;;18.25;16.50;;;;;22.82;100.00;100737.84;2122512;27;47372;-70
2023/08/28 00:25:18;;;;;;;;;4.67;3.33;;;;;22.82;100.00;100743.25;2123215;27;46664;-70
2023/08/28 00:26:18;;;;;;;;;6.00;6.00;;;;;22.82;100.00;100748.69;2123083;27;45933;-70
2023/08/28 00:27:18;;;;;;;;;11.00;9.00;;;;;22.81;100.00;100745.09;2122470;27;47386;-71
2023/08/28 00:28:19;;;;;;;;;12.67;11.67;;;;;22.84;100.00;100744.91;2117853;27;45603;-72
2023/08/28 00:29:19;;;;;;;;;6.00;6.00;;;;;22.84;100.00;100744.91;2122762;27;46384;-70
2023/08/28 00:30:19;;;;;;;;;7.00;7.00;;;;;22.83;100.00;100740.47;2122852;27;46494;-70
2023/08/28 00:31:20;;;;;;;;;16.67;13.33;;;;;22.81;100.00;100745.09;2122730;27;48355;-71
2023/08/28 00:32:25;;;;;;;;;8.67;8.67;;;;;22.75;100.00;100737.44;2123096;27;45575;-70
2023/08/28 00:33:26;;;;;;;;;7.75;7.00;;;;;22.82;100.00;100737.84;2123374;27;45550;-69
2023/08/28 00:34:26;;;;;;;;;4.00;4.00;;;;;22.82;100.00;100736.00;2117494;27;45885;-70
2023/08/28 00:35:29;;;;;;;;;0.75;0.75;;;;;22.80;100.00;100732.56;2118151;27;46369;-70
2023/08/28 00:36:30;;;;;;;;;6.67;4.33;;;;;22.80;100.00;100731.69;2115363;27;45131;-70
2023/08/28 00:37:30;;;;;;;;;7.00;6.67;;;;;22.79;100.00;100732.66;2119593;27;45152;-70
2023/08/28 00:38:30;;;;;;;;;7.00;6.00;;;;;22.80;100.00;100734.41;2121581;27;46248;-72
2023/08/28 00:39:33;;;;;;;;;3.33;3.33;;;;;22.73;100.00;100725.84;2122201;27;46439;-70
2023/08/28 00:40:43;;;;;;;;;17.80;14.00;;;;;22.72;100.00;100726.81;2122427;27;48943;-72
2023/08/28 00:41:43;;;;;;;;;9.50;9.50;;;;;22.74;100.00;100718.59;2113675;27;46830;-72
2023/08/28 00:42:43;;;;;;;;;8.00;8.00;;;;;22.75;100.00;100723.06;2113704;27;46028;-70
2023/08/28 00:43:46;;;;;;;;;2.00;2.00;;;;;22.77;100.00;100730.06;2118745;27;45777;-72
2023/08/28 00:44:49;;;;;;;;;2.00;2.00;;;;;22.76;100.00;100725.66;2119197;27;47275;-74
2023/08/28 00:45:52;;;;;;;;;1.50;1.50;;;;;22.76;100.00;100722.06;2114433;27;46123;-70
2023/08/28 00:46:53;;;;;;;;;0.00;0.00;;;;;22.78;100.00;100726.41;2122482;27;46234;-71
2023/08/28 00:47:53;;;;;;;;;1.00;1.00;;;;;22.79;100.00;100727.25;2123099;27;45643;-70
2023/08/28 00:48:54;;;;;;;;;1.67;1.67;;;;;22.78;100.00;100720.97;2122600;27;46637;-70
2023/08/28 00:49:54;;;;;;;;;1.00;0.33;;;;;22.78;100.00;100718.28;2123035;27;45662;-70
2023/08/28 00:50:55;;;;;;;;;2.00;0.00;;;;;22.79;100.00;100724.56;2118927;27;46504;-69
2023/08/28 00:51:57;;;;;;;;;1.00;1.00;;;;;22.79;100.00;100719.13;2120084;27;47112;-71
2023/08/28 00:52:57;;;;;;;;;1.25;0.75;;;;;22.78;100.00;100717.41;2118225;27;46646;-71
2023/08/28 00:53:58;;;;;;;;;0.00;0.00;;;;;22.80;100.00;100721.72;2099296;28;46636;-70
2023/08/28 00:54:58;;;;;;;;;0.00;0.00;;;;;22.81;100.00;100723.47;2104961;28;45386;-70
2023/08/28 00:55:59;;;;;;;;;0.00;0.00;;;;;22.81;100.00;100707.22;2122616;27;46309;-70
2023/08/28 00:57:00;;;;;;;;;2.00;1.67;;;;;22.81;100.00;100715.34;2122661;27;46711;-71
2023/08/28 00:58:01;;;;;;;;;1.33;0.00;;;;;22.80;100.00;100708.19;2122188;27;46416;-71
2023/08/28 00:59:03;;;;;;;;;1.00;1.00;;;;;22.79;100.00;100714.59;2121260;27;45413;-70
2023/08/28 01:00:05;;;;;;;;;1.00;1.00;;;;;22.72;100.00;100705.19;2104385;28;45709;-71
2023/08/28 01:01:06;;;;;;;;;1.00;1.00;;;;;22.79;100.00;100711.03;2108698;27;46739;-70
2023/08/28 01:02:08;;;;;;;;;0.67;0.00;;;;;22.81;100.00;100715.34;2100343;27;45588;-70
2023/08/28 01:03:09;;;;;;;;;2.75;1.75;;;;;22.80;100.00;100702.78;2104908;28;45905;-70
2023/08/28 01:04:09;;;;;;;;;1.00;0.00;;;;;22.79;100.00;100709.19;2104654;28;45598;-70
2023/08/28 01:05:11;;;;;;;;;2.00;0.00;;;;;22.80;100.00;100697.38;2104541;28;47123;-71
2023/08/28 01:06:17;;;;;;;;;0.00;0.00;;;;;22.79;100.00;100702.91;2104901;28;46342;-70
2023/08/28 01:07:29;;;;;;;;;2.00;2.00;;;;;22.79;100.00;100700.19;2103431;27;45779;-72
2023/08/28 01:08:42;;;;;;;;;2.75;1.00;;;;;22.79;100.00;100700.19;2103857;28;45789;-68
2023/08/28 01:09:52;;;;;;;;;2.00;2.00;;;;;22.75;100.00;100707.69;2104638;28;47034;-69
2023/08/28 01:10:58;;;;;;;;;0.00;0.00;;;;;22.76;100.00;100709.41;2104779;28;46050;-71
2023/08/28 01:12:14;;;;;;;;;1.00;1.00;;;;;22.77;100.00;100707.56;2104533;28;45822;-69
2023/08/28 01:13:36;;;;;;;;;1.00;1.00;;;;;22.75;100.00;100709.53;2104793;28;45822;-69
2023/08/28 01:14:49;;;;;;;;;1.00;1.00;;;;;22.77;100.00;100711.13;2104293;28;46210;-70
2023/08/28 01:15:49;;;;;;;;;2.75;2.75;;;;;22.75;100.00;100712.22;2104472;28;46286;-71
2023/08/28 01:16:52;;;;;;;;;1.67;1.00;;;;;22.74;100.00;100708.66;2104811;28;45697;-71
2023/08/28 01:18:05;;;;;;;;;0.00;0.00;;;;;22.74;100.00;100707.78;2104782;28;46835;-71
2023/08/28 01:19:20;;;;;;;;;1.50;1.50;;;;;22.69;100.00;100701.84;2100394;28;46360;-69
2023/08/28 01:20:22;;;;;;;;;0.00;0.00;;;;;22.74;100.00;100705.06;2104170;27;45177;-70
2023/08/28 01:21:23;;;;;;;;;2.50;1.00;;;;;22.74;100.00;100707.78;2096116;28;46933;-70
2023/08/28 01:22:45;;;;;;;;;1.00;1.00;;;;;22.74;100.00;100703.25;2101858;28;45048;-69
2023/08/28 01:23:58;;;;;;;;;1.00;1.00;;;;;22.71;100.00;100705.28;2104500;28;47804;-69
2023/08/28 01:25:12;;;;;;;;;1.25;1.25;;;;;22.69;100.00;100707.25;2104721;28;47323;-70
2023/08/28 01:26:12;;;;;;;;;0.00;0.00;;;;;22.67;100.00;100701.09;2102790;28;46446;-70
2023/08/28 01:27:14;;;;;;;;;0.67;0.67;;;;;22.69;100.00;100710.81;2104294;28;46331;-69
2023/08/28 01:28:15;;;;;;;;;2.50;1.75;;;;;22.68;100.00;100700.97;2103381;28;46682;-70
2023/08/28 01:29:15;;;;;;;;;0.00;0.00;;;;;22.42;100.00;100700.16;2104662;28;45859;-69
2023/08/28 01:30:16;;;;;;;;;2.00;2.00;;;;;22.29;100.00;100699.28;2104896;28;46207;-70
2023/08/28 01:31:17;;;;;;;;;3.75;1.25;;;;;22.34;100.00;100707.94;2104669;28;46744;-70
2023/08/28 01:32:17;;;;;;;;;1.33;1.33;;;;;22.27;100.00;100702.09;2122287;27;46279;-70
2023/08/28 01:33:18;;;;;;;;;3.00;1.00;;;;;22.33;100.00;100700.78;2122544;27;46803;-70
2023/08/28 01:34:18;;;;;;;;;1.67;1.67;;;;;22.26;100.00;100700.38;2114165;27;45772;-69
2023/08/28 01:35:25;;;;;;;;;0.33;0.33;;;;;22.39;100.00;100703.06;2117804;27;45088;-70
2023/08/28 01:36:33;;;;;;;;;0.25;0.25;;;;;22.30;100.00;100695.59;2123225;27;46794;-69
2023/08/28 01:38:09;;;;;;;;;0.75;0.75;;;;;22.31;100.00;100692.78;2112206;27;46547;-69
2023/08/28 01:39:19;;;;;;;;;0.75;0.00;;;;;22.32;100.00;100689.09;2113423;27;46522;-69
2023/08/28 01:40:24;;;;;;;;;1.25;0.75;;;;;22.31;100.00;100691.94;2122310;27;46716;-71
2023/08/28 01:41:26;;;;;;;;;0.75;0.75;;;;;22.28;100.00;100689.44;2119429;27;46943;-69
2023/08/28 01:42:28;;;;;;;;;2.50;1.25;;;;;22.26;100.00;100688.69;2119034;27;46043;-69
2023/08/28 01:43:34;;;;;;;;;0.00;0.00;;;;;22.28;100.00;100689.44;2118044;27;46379;-71
2023/08/28 01:44:35;;;;;;;;;0.75;0.00;;;;;22.39;100.00;100691.41;2122630;27;46307;-74
2023/08/28 01:45:39;;;;;;;;;1.50;1.50;;;;;22.37;100.00;100691.50;2116739;27;46892;-71
2023/08/28 01:46:40;;;;;;;;;0.00;0.00;;;;;22.42;100.00;100693.88;2119768;27;46263;-70
2023/08/28 01:47:40;;;;;;;;;1.00;0.00;;;;;22.40;100.00;100683.16;2122789;27;45132;-71
2023/08/28 01:48:44;;;;;;;;;0.33;0.33;;;;;22.47;100.00;100689.00;2122179;27;47076;-70
2023/08/28 01:49:45;;;;;;;;;0.00;0.00;;;;;22.50;100.00;100686.09;2122556;27;46695;-71
2023/08/28 01:50:45;;;;;;;;;0.00;0.00;;;;;22.54;100.00;100691.16;2122651;27;46187;-72
2023/08/28 01:51:45;;;;;;;;;0.00;0.00;;;;;22.52;100.00;100687.69;2120169;27;46478;-70
2023/08/28 01:52:46;;;;;;;;;0.67;0.67;;;;;22.51;100.00;100691.38;2122633;27;45984;-71
2023/08/28 01:53:47;;;;;;;;;2.00;1.00;;;;;22.52;100.00;100684.13;2122692;27;45851;-70
2023/08/28 01:54:48;;;;;;;;;1.25;1.25;;;;;22.56;100.00;100685.63;2113134;27;45806;-70
2023/08/28 01:56:09;;;;;;;;;0.75;0.00;;;;;22.53;100.00;100693.97;2113677;27;46939;-70
2023/08/28 01:57:09;;;;;;;;;0.25;0.25;;;;;22.46;100.00;100681.84;2122225;27;46553;-71
2023/08/28 01:58:10;;;;;;;;;1.33;0.00;;;;;22.45;100.00;100683.69;2103710;28;48728;-71
2023/08/28 01:59:10;;;;;;;;;0.33;0.33;;;;;22.44;100.00;100691.91;2104048;28;46965;-70
2023/08/28 02:00:11;;;;;;;;;1.67;1.00;;;;;22.41;100.00;100684.91;2122291;27;47042;-70
2023/08/28 02:01:12;;;;;;;;;2.50;1.00;;;;;22.41;100.00;100678.63;2114094;27;46213;-71
2023/08/28 02:02:12;;;;;;;;;0.00;0.00;;;;;22.41;100.00;100675.91;2113450;27;45641;-71
2023/08/28 02:03:13;;;;;;;;;0.33;0.33;;;;;22.45;100.00;100680.13;2120547;27;46034;-71
2023/08/28 02:04:13;;;;;;;;;1.00;1.00;;;;;22.41;100.00;100678.63;2122343;27;46575;-70
2023/08/28 02:05:13;;;;;;;;;0.33;0.33;;;;;22.41;100.00;100684.91;2116539;27;46443;-70
2023/08/28 02:06:14;;;;;;;;;0.00;0.00;;;;;22.31;100.00;100678.41;2120987;27;45098;-70
2023/08/28 02:07:15;;;;;;;;;0.00;0.00;;;;;22.31;100.00;100684.69;2116695;27;45302;-71
2023/08/28 02:08:15;;;;;;;;;0.25;0.00;;;;;22.30;100.00;100682.94;2119382;27;46589;-70
2023/08/28 02:09:16;;;;;;;;;1.00;0.33;;;;;22.35;100.00;100681.75;2120339;27;46794;-71
2023/08/28 02:10:16;;;;;;;;;0.00;0.00;;;;;22.32;100.00;100680.13;2121609;27;46060;-70
2023/08/28 02:11:17;;;;;;;;;1.33;1.00;;;;;22.30;100.00;100676.69;2122645;27;46724;-70
2023/08/28 02:12:17;;;;;;;;;0.00;0.00;;;;;22.35;100.00;100679.03;2122436;27;48736;-71
2023/08/28 02:13:17;;;;;;;;;0.00;0.00;;;;;22.35;100.00;100679.03;2117677;27;46757;-71
2023/08/28 02:14:18;;;;;;;;;0.67;0.00;;;;;22.35;100.00;100684.44;2121597;27;46532;-70
2023/08/28 02:15:19;;;;;;;;;1.00;1.00;;;;;22.31;100.00;100676.56;2122162;27;45708;-71
2023/08/28 02:16:19;;;;;;;;;0.75;0.00;;;;;22.30;100.00;100680.25;2122017;27;45680;-71
2023/08/28 02:17:21;;;;;;;;;0.75;0.75;;;;;22.30;100.00;100682.09;2103845;28;46866;-72
2023/08/28 02:18:21;;;;;;;;;2.67;0.00;;;;;22.27;100.00;100682.31;2102781;27;46304;-69
2023/08/28 02:19:22;;;;;;;;;0.33;0.00;;;;;22.26;100.00;100677.88;2121527;27;46065;-70
2023/08/28 02:20:22;;;;;;;;;0.00;0.00;;;;;22.27;100.00;100679.63;2120912;27;46878;-70
2023/08/28 02:21:22;;;;;;;;;0.00;0.00;;;;;22.27;100.00;100677.78;2122320;27;45623;-69
2023/08/28 02:22:23;;;;;;;;;0.33;0.00;;;;;22.29;100.00;100677.66;2113335;27;46465;-70
2023/08/28 02:23:25;;;;;;;;;0.00;0.00;;;;;22.30;100.00;100672.13;2113234;27;45574;-74
2023/08/28 02:24:38;;;;;;;;;0.00;0.00;;;;;22.35;100.00;100670.94;2122056;27;46911;-70
2023/08/28 02:25:46;;;;;;;;;0.75;0.75;;;;;22.33;100.00;100668.34;2113860;27;45585;-70
2023/08/28 02:26:46;;;;;;;;;1.00;0.00;;;;;22.32;100.00;100677.44;2121393;27;46752;-70
2023/08/28 02:27:47;;;;;;;;;0.67;0.67;;;;;22.33;100.00;100679.16;2113154;27;45806;-70
2023/08/28 02:28:47;;;;;;;;;1.00;1.00;;;;;22.29;100.00;100677.66;2113296;27;45881;-70
2023/08/28 02:29:47;;;;;;;;;0.00;0.00;;;;;22.29;100.00;100674.97;2112733;27;46842;-71
2023/08/28 02:30:48;;;;;;;;;0.00;0.00;;;;;22.28;100.00;100678.63;2112720;27;46523;-70
2023/08/28 02:31:48;;;;;;;;;1.00;0.67;;;;;22.30;100.00;100673.97;2113073;27;46425;-69
2023/08/28 02:32:48;;;;;;;;;1.00;0.00;;;;;22.30;100.00;100679.38;2122064;27;46729;-70
2023/08/28 02:33:48;;;;;;;;;0.00;0.00;;;;;22.29;100.00;100666.84;2122631;27;45759;-69
2023/08/28 02:34:49;;;;;;;;;0.00;0.00;;;;;22.30;100.00;100672.13;2122272;27;46000;-70
2023/08/28 02:35:49;;;;;;;;;0.67;0.00;;;;;22.32;100.00;100672.03;2122381;27;45878;-70
2023/08/28 02:36:49;;;;;;;;;1.67;0.67;;;;;22.33;100.00;100673.75;2119019;27;45482;-71
2023/08/28 02:37:50;;;;;;;;;0.00;0.00;;;;;22.35;100.00;100673.63;2119448;27;46381;-69
2023/08/28 02:38:50;;;;;;;;;1.00;1.00;;;;;22.30;100.00;100674.84;2121405;27;45434;-70
2023/08/28 02:39:50;;;;;;;;;1.00;1.00;;;;;22.34;100.00;100675.47;2119584;27;45658;-70
2023/08/28 02:40:51;;;;;;;;;1.00;1.00;;;;;22.33;100.00;100677.31;2122187;27;46081;-69
2023/08/28 02:41:51;;;;;;;;;0.00;0.00;;;;;22.35;100.00;100681.75;2129456;27;46431;-70
2023/08/28 02:42:54;;;;;;;;;0.00;0.00;;;;;22.35;100.00;100682.63;2122176;27;45506;-71
2023/08/28 02:43:54;;;;;;;;;0.25;0.25;;;;;22.36;100.00;100680.78;2118569;27;46054;-71
2023/08/28 02:44:54;;;;;;;;;0.33;0.33;;;;;22.36;100.00;100680.78;2122291;27;46053;-70
2023/08/28 02:45:55;;;;;;;;;0.00;0.00;;;;;22.36;100.00;100678.97;2122129;27;46296;-69
2023/08/28 02:46:55;;;;;;;;;1.00;1.00;;;;;22.36;100.00;100689.78;2122197;27;45207;-69
2023/08/28 02:47:55;;;;;;;;;0.00;0.00;;;;;22.37;100.00;100687.94;2122117;27;46468;-70
2023/08/28 02:48:56;;;;;;;;;1.00;1.00;;;;;22.38;100.00;100687.81;2116607;27;46754;-70
2023/08/28 02:49:56;;;;;;;;;1.33;0.67;;;;;22.36;100.00;100678.06;2119603;27;46641;-70
2023/08/28 02:50:56;;;;;;;;;1.00;1.00;;;;;22.35;100.00;100690.72;2117527;27;46493;-71
2023/08/28 02:51:57;;;;;;;;;1.00;1.00;;;;;22.32;100.00;100685.53;2113029;27;45393;-70
2023/08/28 02:52:57;;;;;;;;;0.00;0.00;;;;;22.35;100.00;100688.03;2106569;27;46299;-70
2023/08/28 02:53:58;;;;;;;;;1.00;0.00;;;;;22.39;100.00;100692.25;2114370;27;46669;-70
2023/08/28 02:54:58;;;;;;;;;1.00;1.00;;;;;22.35;100.00;100690.72;2121694;27;45719;-70
2023/08/28 02:56:10;;;;;;;;;0.67;0.00;;;;;22.40;100.00;100693.97;2122123;27;46276;-70
2023/08/28 02:57:10;;;;;;;;;0.00;0.00;;;;;22.38;100.00;100692.38;2122133;27;46461;-70
2023/08/28 02:58:10;;;;;;;;;1.33;0.00;;;;;22.44;100.00;100694.63;2121808;27;46686;-69
2023/08/28 02:59:11;;;;;;;;;0.00;0.00;;;;;22.40;100.00;100693.97;2119682;27;45599;-71
2023/08/28 03:00:12;;;;;;;;;2.67;0.33;;;;;22.37;100.00;100696.91;2121227;27;46519;-70
2023/08/28 03:01:12;;;;;;;;;1.00;1.00;;;;;22.45;100.00;100691.81;2122065;27;46611;-70
2023/08/28 03:02:12;;;;;;;;;1.00;1.00;;;;;22.43;100.00;100684.78;2121754;27;46278;-69
2023/08/28 03:03:15;;;;;;;;;2.25;1.00;;;;;22.45;100.00;100688.25;2121822;27;46298;-69
2023/08/28 03:04:16;;;;;;;;;0.00;0.00;;;;;22.46;100.00;100685.41;2119853;27;45589;-69
2023/08/28 03:05:17;;;;;;;;;0.00;0.00;;;;;22.43;100.00;100684.78;2122061;27;46547;-70
2023/08/28 03:06:17;;;;;;;;;0.33;0.33;;;;;22.46;100.00;100685.41;2104953;27;45477;-70
2023/08/28 03:07:17;;;;;;;;;1.00;0.00;;;;;22.46;100.00;100688.13;2104616;28;46191;-70
2023/08/28 03:08:18;;;;;;;;;1.67;1.67;;;;;22.47;100.00;100691.69;2117230;27;46709;-70
2023/08/28 03:09:18;;;;;;;;;1.00;1.00;;;;;22.46;100.00;100693.53;2117144;27;47232;-69
2023/08/28 03:10:18;;;;;;;;;0.67;0.67;;;;;22.47;100.00;100692.56;2122244;27;45601;-69
2023/08/28 03:11:19;;;;;;;;;1.00;1.00;;;;;22.44;100.00;100684.66;2122003;27;45793;-70
2023/08/28 03:12:19;;;;;;;;;2.33;0.33;;;;;22.49;100.00;100695.19;2122044;27;45725;-70
2023/08/28 03:13:19;;;;;;;;;0.00;0.00;;;;;22.49;100.00;100692.47;2121968;27;45446;-70
2023/08/28 03:14:20;;;;;;;;;0.67;0.00;;;;;22.45;100.00;100683.69;2122125;27;46013;-71
2023/08/28 03:15:21;;;;;;;;;1.00;0.33;;;;;22.43;100.00;100692.91;2122734;27;45989;-70
2023/08/28 03:16:21;;;;;;;;;0.00;0.00;;;;;22.39;100.00;100689.56;2112625;27;45726;-70
2023/08/28 03:17:22;;;;;;;;;0.00;0.00;;;;;22.37;100.00;100688.81;2113512;27;46094;-71
2023/08/28 03:18:22;;;;;;;;;0.00;0.00;;;;;22.35;100.00;100689.84;2113738;27;46538;-71
2023/08/28 03:19:22;;;;;;;;;0.00;0.00;;;;;22.33;100.00;100687.28;2121060;27;46553;-71
2023/08/28 03:20:23;;;;;;;;;1.67;0.00;;;;;22.27;100.00;100690.44;2122099;27;45849;-70
2023/08/28 03:21:23;;;;;;;;;0.33;0.33;;;;;22.33;100.00;100695.38;2115365;27;46904;-70
2023/08/28 03:22:23;;;;;;;;;1.00;0.00;;;;;22.31;100.00;100691.94;2114384;27;45506;-69
2023/08/28 03:23:24;;;;;;;;;0.00;0.00;;;;;22.32;100.00;100694.50;2121673;27;46189;-70
2023/08/28 03:24:24;;;;;;;;;0.00;0.00;;;;;22.25;100.00;100700.50;2121983;27;45461;-69
2023/08/28 03:25:25;;;;;;;;;0.67;0.67;;;;;22.36;100.00;100699.69;2120657;27;46207;-70
2023/08/28 03:26:26;;;;;;;;;2.00;0.00;;;;;22.38;100.00;100698.66;2118215;27;46839;-70
2023/08/28 03:27:26;;;;;;;;;1.00;1.00;;;;;22.36;100.00;100697.91;2121544;27;46076;-70
2023/08/28 03:28:26;;;;;;;;;0.00;0.00;;;;;22.38;100.00;100703.19;2113002;27;45880;-69
2023/08/28 03:29:27;;;;;;;;;0.00;0.00;;;;;22.31;100.00;100700.03;2119742;27;46009;-71
2023/08/28 03:30:27;;;;;;;;;1.33;0.00;;;;;22.38;100.00;100706.75;2122275;27;45668;-71
2023/08/28 03:31:28;;;;;;;;;1.67;1.67;;;;;22.39;100.00;100705.78;2121688;27;46188;-71
2023/08/28 03:32:29;;;;;;;;;2.00;1.00;;;;;22.33;100.00;100712.47;2121690;27;47048;-70
2023/08/28 03:33:29;;;;;;;;;0.00;0.00;;;;;22.27;100.00;100703.94;2121599;27;45604;-71
2023/08/28 03:34:30;;;;;;;;;0.00;0.00;;;;;22.40;100.00;100706.66;2113896;27;46088;-70
2023/08/28 03:35:30;;;;;;;;;2.00;0.00;;;;;22.41;100.00;100709.22;2121894;27;45568;-71
2023/08/28 03:36:31;;;;;;;;;0.33;0.33;;;;;22.42;100.00;100710.97;2121357;27;46378;-71
2023/08/28 03:37:31;;;;;;;;;1.67;0.00;;;;;22.41;100.00;100708.38;2121067;27;46580;-69
2023/08/28 03:38:32;;;;;;;;;0.00;0.00;;;;;22.29;100.00;100708.25;2123267;27;44935;-71
2023/08/28 03:39:32;;;;;;;;;1.00;1.00;;;;;22.28;100.00;100711.06;2116816;27;46866;-69
2023/08/28 03:40:35;;;;;;;;;0.00;0.00;;;;;22.27;100.00;100712.91;2123481;27;46749;-70
2023/08/28 03:41:35;;;;;;;;;0.00;0.00;;;;;22.26;100.00;100708.50;2123389;27;46158;-69
2023/08/28 03:42:35;;;;;;;;;0.00;0.00;;;;;22.25;100.00;100717.56;2122819;27;45577;-70
2023/08/28 03:43:35;;;;;;;;;0.00;0.00;;;;;22.24;100.00;100713.16;2118453;27;46046;-69
2023/08/28 03:44:36;;;;;;;;;0.00;0.00;;;;;22.23;100.00;100716.81;2118238;27;46342;-69
2023/08/28 03:45:37;;;;;;;;;0.33;0.33;;;;;22.22;100.00;100720.47;2123281;27;45524;-69
2023/08/28 03:46:37;;;;;;;;;1.33;1.00;;;;;22.21;100.00;100717.88;2123545;27;45467;-69
2023/08/28 03:47:37;;;;;;;;;0.00;0.00;;;;;22.20;100.00;100717.00;2123332;27;46157;-70
2023/08/28 03:48:38;;;;;;;;;0.00;0.00;;;;;22.19;100.00;100720.69;2123257;27;46696;-70
2023/08/28 03:49:38;;;;;;;;;2.67;1.00;;;;;22.21;100.00;100715.16;2119917;27;46112;-69
2023/08/28 03:50:38;;;;;;;;;0.00;0.00;;;;;22.21;100.00;100717.88;2120465;27;45822;-70
2023/08/28 03:51:39;;;;;;;;;0.00;0.00;;;;;22.20;100.00;100711.59;2122810;27;45294;-71
2023/08/28 03:52:39;;;;;;;;;0.00;0.00;;;;;22.17;100.00;100703.72;2123745;27;45491;-70
2023/08/28 03:53:40;;;;;;;;;0.00;0.00;;;;;22.23;100.00;100710.50;2122659;27;45526;-69
2023/08/28 03:54:41;;;;;;;;;0.00;0.00;;;;;22.22;100.00;100711.50;2123438;27;46951;-70
2023/08/28 03:55:41;;;;;;;;;0.33;0.33;;;;;22.20;100.00;100714.31;2123197;27;46089;-70
2023/08/28 03:56:42;;;;;;;;;1.00;1.00;;;;;22.15;100.00;100711.06;2117131;27;46575;-70
2023/08/28 03:57:42;;;;;;;;;0.00;0.00;;;;;22.12;100.00;100714.00;2122948;27;46320;-70
2023/08/28 03:58:43;;;;;;;;;0.67;0.67;;;;;22.17;100.00;100714.53;2114260;27;46216;-70
2023/08/28 03:59:43;;;;;;;;;1.33;0.00;;;;;22.15;100.00;100718.31;2105098;28;45588;-70
2023/08/28 04:00:44;;;;;;;;;0.00;0.00;;;;;22.16;100.00;100714.63;2113834;27;46400;-69
2023/08/28 04:01:44;;;;;;;;;0.00;0.00;;;;;22.17;100.00;100719.94;2123473;27;45561;-70
2023/08/28 04:02:46;;;;;;;;;0.67;0.67;;;;;22.17;100.00;100722.63;2123295;27;46569;-69
2023/08/28 04:03:46;;;;;;;;;0.00;0.00;;;;;22.15;100.00;100718.31;2116417;27;45127;-70
2023/08/28 04:04:47;;;;;;;;;1.67;1.00;;;;;22.15;100.00;100721.03;2123494;27;46041;-70
2023/08/28 04:05:48;;;;;;;;;0.00;0.00;;;;;22.15;100.00;100721.03;2123171;27;46517;-70
2023/08/28 04:06:48;;;;;;;;;1.00;1.00;;;;;22.14;100.00;100722.00;2113559;27;45583;-71
2023/08/28 04:07:49;;;;;;;;;1.00;1.00;;;;;22.14;100.00;100722.84;2113860;27;47091;-71
2023/08/28 04:08:50;;;;;;;;;0.25;0.00;;;;;22.14;100.00;100730.09;2117355;27;45715;-71
2023/08/28 04:09:51;;;;;;;;;0.67;0.67;;;;;22.25;100.00;100728.38;2114799;27;45972;-70
2023/08/28 04:10:54;;;;;;;;;1.75;1.00;;;;;22.29;100.00;100726.31;2113836;27;46586;-71
2023/08/28 04:11:55;;;;;;;;;0.75;0.75;;;;;22.30;100.00;100730.75;2122999;27;46400;-70
2023/08/28 04:12:56;;;;;;;;;1.25;0.50;;;;;22.19;100.00;100725.22;2116755;27;46586;-70
2023/08/28 04:13:56;;;;;;;;;1.00;1.00;;;;;22.18;100.00;100724.38;2123234;27;45796;-71
2023/08/28 04:14:57;;;;;;;;;0.00;0.00;;;;;22.19;100.00;100723.38;2123036;27;45748;-71
2023/08/28 04:15:59;;;;;;;;;1.00;1.00;;;;;22.25;100.00;100722.13;2123407;27;45827;-69
2023/08/28 04:16:59;;;;;;;;;0.00;0.00;;;;;22.25;100.00;100722.97;2114877;27;45860;-72
2023/08/28 04:18:00;;;;;;;;;1.33;0.00;;;;;22.15;100.00;100723.72;2118153;27;45477;-71
2023/08/28 04:19:00;;;;;;;;;2.00;2.00;;;;;22.14;100.00;100714.75;2123114;27;46438;-70
2023/08/28 04:20:12;;;;;;;;;0.67;0.67;;;;;22.16;100.00;100720.91;2114631;27;46060;-71
2023/08/28 04:21:13;;;;;;;;;0.25;0.25;;;;;22.22;100.00;100725.88;2115763;27;45661;-71
2023/08/28 04:22:13;;;;;;;;;1.00;1.00;;;;;22.20;100.00;100721.56;2123283;27;45483;-71
2023/08/28 04:23:14;;;;;;;;;1.33;0.00;;;;;22.23;100.00;100727.63;2122638;27;46514;-70
2023/08/28 04:24:14;;;;;;;;;0.33;0.33;;;;;22.25;100.00;100722.97;2123316;27;46919;-69
2023/08/28 04:25:14;;;;;;;;;2.00;0.67;;;;;22.23;100.00;100721.34;2123432;27;46201;-70
2023/08/28 04:26:15;;;;;;;;;1.33;1.00;;;;;22.23;100.00;100718.63;2123493;27;45924;-70
2023/08/28 04:27:15;;;;;;;;;0.00;0.00;;;;;22.27;100.00;100722.88;2122950;27;46723;-70
2023/08/28 04:28:16;;;;;;;;;0.00;0.00;;;;;22.20;100.00;100722.41;2121715;27;46361;-70
2023/08/28 04:29:16;;;;;;;;;1.33;1.33;;;;;22.22;100.00;100717.75;2123534;27;46913;-69
2023/08/28 04:30:16;;;;;;;;;0.00;0.00;;;;;22.21;100.00;100723.28;2117952;27;46640;-69
2023/08/28 04:31:17;;;;;;;;;0.00;0.00;;;;;22.16;100.00;100715.50;2119794;27;46554;-69
2023/08/28 04:32:18;;;;;;;;;0.50;0.00;;;;;22.17;100.00;100719.06;2114842;27;45454;-71
2023/08/28 04:33:18;;;;;;;;;2.00;1.00;;;;;22.14;100.00;100720.16;2122814;27;45711;-70
2023/08/28 04:34:18;;;;;;;;;2.00;0.00;;;;;22.16;100.00;100711.94;2123060;27;45137;-68
2023/08/28 04:35:19;;;;;;;;;0.00;0.00;;;;;22.14;100.00;100712.06;2104848;28;46512;-68
2023/08/28 04:36:19;;;;;;;;;1.00;1.00;;;;;22.07;100.00;100708.03;2104989;28;46474;-69
2023/08/28 04:37:19;;;;;;;;;0.67;0.67;;;;;22.09;100.00;100706.06;2113623;27;46341;-69
2023/08/28 04:38:20;;;;;;;;;2.00;1.00;;;;;22.01;100.00;100713.84;2113839;27;46588;-68
2023/08/28 04:39:23;;;;;;;;;0.00;0.00;;;;;21.97;100.00;100713.16;2114502;27;46201;-68
2023/08/28 04:40:23;;;;;;;;;0.00;0.00;;;;;21.96;100.00;100713.28;2114486;27;46605;-66
2023/08/28 04:41:23;;;;;;;;;0.67;0.67;;;;;21.93;100.00;100708.09;2121019;27;46977;-65
2023/08/28 04:42:24;;;;;;;;;1.67;1.67;;;;;21.88;100.00;100713.81;2122527;27;46904;-66
2023/08/28 04:43:24;;;;;;;;;2.00;2.00;;;;;21.86;100.00;100710.38;2122671;27;46470;-67
2023/08/28 04:44:25;;;;;;;;;2.00;0.50;;;;;21.84;100.00;100714.13;2122854;27;46477;-65